createdAt,value
2018-10-05T00:00:53.395Z,98602.44
2018-10-05T00:03:19.942Z,98598.02
2018-10-05T00:05:47.268Z,98597.53
2018-10-05T00:08:13.944Z,98592.44
2018-10-05T00:10:41.194Z,98590.48
2018-10-05T00:13:08.421Z,98586.15
2018-10-05T00:15:35.959Z,98579.89
2018-10-05T00:18:03.209Z,98586.83
2018-10-05T00:20:30.938Z,98583.70
2018-10-05T00:22:57.443Z,98584.22
2018-10-05T00:25:24.580Z,98585.86
2018-10-05T00:27:51.088Z,98587.50
2018-10-05T00:30:18.196Z,98584.69
2018-10-05T00:32:44.826Z,98582.49
2018-10-05T00:35:11.386Z,98583.13
2018-10-05T00:37:37.965Z,98582.78
2018-10-05T00:40:04.525Z,98579.86
2018-10-05T00:42:31.198Z,98580.92
2018-10-05T00:44:57.808Z,98580.60
2018-10-05T00:47:24.451Z,98571.54
2018-10-05T00:49:51.011Z,98573.21
2018-10-05T00:52:17.941Z,98568.59
2018-10-05T00:54:44.681Z,98574.02
2018-10-05T00:57:11.183Z,98574.70
2018-10-05T00:59:37.755Z,98570.27
2018-10-05T01:02:04.445Z,98568.16
2018-10-05T01:04:31.197Z,98562.38
2018-10-05T01:06:57.785Z,98563.83
2018-10-05T01:09:24.496Z,98568.84
2018-10-05T01:11:51.471Z,98566.45
2018-10-05T01:14:18.033Z,98565.91
2018-10-05T01:16:44.744Z,98560.11
2018-10-05T01:19:11.350Z,98563.92
2018-10-05T01:21:37.953Z,98568.22
2018-10-05T01:24:04.550Z,98571.39
2018-10-05T01:26:31.045Z,98562.48
2018-10-05T01:28:57.586Z,98562.09
2018-10-05T01:31:28.159Z,98560.38
2018-10-05T01:33:54.660Z,98561.10
2018-10-05T01:36:22.122Z,98564.14
2018-10-05T01:41:21.903Z,98562.56
2018-10-05T01:43:48.798Z,98559.02
2018-10-05T01:46:16.346Z,98559.34
2018-10-05T01:48:43.900Z,98558.47
2018-10-05T01:51:11.213Z,98554.48
2018-10-05T01:53:38.212Z,98548.78
2018-10-05T01:56:05.460Z,98545.02
2018-10-05T01:58:33.053Z,98539.39
2018-10-05T02:01:00.353Z,98533.95
2018-10-05T02:03:27.032Z,98534.49
2018-10-05T02:05:53.538Z,98535.50
2018-10-05T02:08:20.074Z,98532.55
2018-10-05T02:10:46.680Z,98530.25
2018-10-05T02:13:13.165Z,98529.55
2018-10-05T02:15:39.685Z,98524.62
2018-10-05T02:18:06.927Z,98525.25
2018-10-05T02:20:33.702Z,98517.75
2018-10-05T02:23:00.770Z,98520.57
2018-10-05T02:25:28.105Z,98516.30
2018-10-05T02:27:54.634Z,98518.38
2018-10-05T02:30:22.417Z,98518.50
2018-10-05T02:32:49.128Z,98520.81
2018-10-05T02:35:16.003Z,98516.80
2018-10-05T02:37:43.192Z,98521.73
2018-10-05T02:40:09.988Z,98517.94
2018-10-05T02:42:36.567Z,98515.73
2018-10-05T02:45:03.077Z,98516.94
2018-10-05T02:52:33.108Z,98512.19
2018-10-05T02:54:59.617Z,98511.05
2018-10-05T02:57:26.774Z,98509.38
2018-10-05T02:59:54.821Z,98511.88
2018-10-05T03:02:21.566Z,98509.48
2018-10-05T03:04:49.193Z,98513.05
2018-10-05T03:07:16.306Z,98509.88
2018-10-05T03:09:42.916Z,98513.80
2018-10-05T03:12:10.321Z,98508.69
2018-10-05T03:14:37.453Z,98510.55
2018-10-05T03:17:04.871Z,98510.48
2018-10-05T03:19:32.450Z,98504.34
2018-10-05T03:22:00.119Z,98507.34
2018-10-05T03:24:26.724Z,98505.16
2018-10-05T03:26:53.246Z,98498.53
2018-10-05T03:29:19.825Z,98497.96
2018-10-05T03:31:46.315Z,98496.03
2018-10-05T03:34:12.824Z,98492.71
2018-10-05T03:39:11.158Z,98495.05
2018-10-05T03:41:38.254Z,98492.41
2018-10-05T03:44:04.814Z,98494.77
2018-10-05T03:46:31.513Z,98494.59
2018-10-05T03:48:58.002Z,98497.76
2018-10-05T03:51:24.587Z,98501.70
2018-10-05T03:53:51.147Z,98497.92
2018-10-05T03:56:17.629Z,98499.06
2018-10-05T03:58:44.191Z,98493.81
2018-10-05T04:01:10.738Z,98493.38
2018-10-05T04:03:37.315Z,98489.83
2018-10-05T04:06:03.812Z,98494.40
2018-10-05T04:08:30.344Z,98492.87
2018-10-05T04:10:56.842Z,98495.02
2018-10-05T04:13:23.317Z,98499.52
2018-10-05T04:15:49.833Z,98498.18
2018-10-05T04:18:16.353Z,98496.06
2018-10-05T04:20:42.861Z,98500.62
2018-10-05T04:23:09.488Z,98503.73
2018-10-05T04:25:35.986Z,98503.78
2018-10-05T04:28:02.596Z,98500.68
2018-10-05T04:30:29.879Z,98493.96
2018-10-05T04:32:56.694Z,98502.59
2018-10-05T04:35:23.243Z,98504.13
2018-10-05T04:37:49.830Z,98510.75
2018-10-05T04:40:16.519Z,98511.70
2018-10-05T04:42:43.718Z,98511.67
2018-10-05T04:45:10.351Z,98513.02
2018-10-05T04:47:37.672Z,98514.82
2018-10-05T04:50:04.161Z,98515.17
2018-10-05T04:52:30.730Z,98522.09
2018-10-05T04:54:58.581Z,98518.34
2018-10-05T04:57:25.122Z,98530.27
2018-10-05T04:59:51.679Z,98526.30
2018-10-05T05:02:18.165Z,98525.28
2018-10-05T05:04:45.148Z,98524.25
2018-10-05T05:07:12.268Z,98526.46
2018-10-05T05:09:38.815Z,98528.78
2018-10-05T05:12:05.527Z,98530.95
2018-10-05T05:14:32.231Z,98532.06
2018-10-05T05:16:58.845Z,98533.59
2018-10-05T05:19:25.593Z,98539.86
2018-10-05T05:21:52.246Z,98533.13
2018-10-05T05:24:18.723Z,98540.76
2018-10-05T05:26:45.528Z,98545.46
2018-10-05T05:29:12.042Z,98548.45
2018-10-05T05:31:38.839Z,98552.80
2018-10-05T05:34:06.099Z,98557.89
2018-10-05T05:36:32.760Z,98563.34
2018-10-05T05:38:59.272Z,98560.00
2018-10-05T05:41:25.742Z,98560.20
2018-10-05T05:43:52.339Z,98564.16
2018-10-05T05:51:23.753Z,98569.98
2018-10-05T05:53:50.266Z,98575.75
2018-10-05T05:56:16.927Z,98579.35
2018-10-05T05:58:43.512Z,98583.75
2018-10-05T06:01:10.163Z,98586.27
2018-10-05T06:03:36.801Z,98591.27
2018-10-05T06:06:05.695Z,98591.38
2018-10-05T06:08:32.250Z,98589.59
2018-10-05T06:10:58.835Z,98587.27
2018-10-05T06:13:25.312Z,98589.31
2018-10-05T06:15:51.829Z,98583.77
2018-10-05T06:18:18.503Z,98594.66
2018-10-05T06:23:16.775Z,98586.83
2018-10-05T06:25:43.241Z,98588.48
2018-10-05T06:28:09.732Z,98581.27
2018-10-05T06:30:36.321Z,98583.59
2018-10-05T06:33:04.027Z,98586.08
2018-10-05T06:35:30.594Z,98590.34
2018-10-05T06:37:57.159Z,98589.36
2018-10-05T06:40:23.858Z,98585.28
2018-10-05T06:42:50.350Z,98588.05
2018-10-05T06:45:16.928Z,98589.88
2018-10-05T06:47:43.402Z,98594.30
2018-10-05T06:50:10.056Z,98583.53
2018-10-05T06:52:36.551Z,98591.44
2018-10-05T06:55:03.028Z,98589.14
2018-10-05T06:57:29.519Z,98597.00
2018-10-05T06:59:56.001Z,98596.80
2018-10-05T07:02:22.468Z,98600.97
2018-10-05T07:04:49.760Z,98599.37
2018-10-05T07:07:16.257Z,98595.26
2018-10-05T07:09:42.726Z,98593.98
2018-10-05T07:12:09.426Z,98599.56
2018-10-05T07:14:35.951Z,98601.83
2018-10-05T07:17:02.504Z,98592.11
2018-10-05T07:19:29.180Z,98599.25
2018-10-05T07:21:55.688Z,98595.38
2018-10-05T07:24:22.208Z,98587.38
2018-10-05T07:26:48.653Z,98587.82
2018-10-05T07:29:15.160Z,98591.05
2018-10-05T07:31:41.638Z,98590.52
2018-10-05T07:34:08.114Z,98588.30
2018-10-05T07:36:34.899Z,98582.90
2018-10-05T07:39:01.551Z,98580.95
2018-10-05T07:41:28.043Z,98586.64
2018-10-05T07:43:54.551Z,98585.36
2018-10-05T07:46:21.053Z,98581.30
2018-10-05T07:48:47.506Z,98582.90
2018-10-05T07:51:14.045Z,98582.39
2018-10-05T07:53:40.552Z,98587.55
2018-10-05T07:56:07.055Z,98584.37
2018-10-05T07:58:33.598Z,98582.05
2018-10-05T08:01:00.098Z,98574.02
2018-10-05T08:03:26.570Z,98570.92
2018-10-05T08:08:28.369Z,98573.43
2018-10-05T08:10:54.819Z,98562.90
2018-10-05T08:13:21.421Z,98558.48
2018-10-05T08:15:47.918Z,98545.80
2018-10-05T08:18:14.374Z,98545.22
2018-10-05T08:20:40.995Z,98545.87
2018-10-05T08:23:07.490Z,98546.66
2018-10-05T08:25:34.064Z,98542.73
2018-10-05T08:28:00.585Z,98542.81
2018-10-05T08:30:30.389Z,98534.71
2018-10-05T08:32:56.842Z,98528.19
2018-10-05T08:35:23.393Z,98526.81
2018-10-05T08:37:50.922Z,98514.65
2018-10-05T08:40:17.467Z,98521.51
2018-10-05T08:42:44.068Z,98517.77
2018-10-05T08:47:42.729Z,98505.99
2018-10-05T08:50:09.191Z,98497.28
2018-10-05T08:52:35.744Z,98491.87
2018-10-05T08:55:02.406Z,98493.34
2018-10-05T08:57:29.179Z,98502.20
2018-10-05T08:59:55.679Z,98505.06
2018-10-05T09:02:22.214Z,98511.70
2018-10-05T09:04:48.682Z,98506.58
2018-10-05T09:07:15.136Z,98500.36
2018-10-05T09:09:41.665Z,98495.84
2018-10-05T09:12:08.167Z,98494.70
2018-10-05T09:14:34.672Z,98491.58
2018-10-05T09:17:01.164Z,98491.61
2018-10-05T09:19:27.619Z,98490.80
2018-10-05T09:21:54.074Z,98488.73
2018-10-05T09:24:20.596Z,98492.50
2018-10-05T09:26:47.038Z,98486.84
2018-10-05T09:29:13.501Z,98486.89
2018-10-05T09:31:40.018Z,98488.22
2018-10-05T09:34:06.506Z,98489.79
2018-10-05T09:36:33.037Z,98485.38
2018-10-05T09:38:59.596Z,98490.13
2018-10-05T09:41:26.074Z,98491.02
2018-10-05T09:43:52.590Z,98493.61
2018-10-05T09:46:19.186Z,98496.17
2018-10-05T09:48:45.711Z,98490.27
2018-10-05T09:51:12.240Z,98491.09
2018-10-05T09:53:38.737Z,98497.67
2018-10-05T09:56:05.249Z,98497.33
2018-10-05T09:58:31.847Z,98493.74
2018-10-05T10:00:58.395Z,98481.86
2018-10-05T10:03:25.001Z,98484.50
2018-10-05T10:05:51.657Z,98487.22
2018-10-05T10:08:18.212Z,98482.19
2018-10-05T10:10:44.932Z,98490.57
2018-10-05T10:13:11.505Z,98482.91
2018-10-05T10:15:38.011Z,98473.16
2018-10-05T10:18:04.563Z,98476.48
2018-10-05T10:20:31.008Z,98467.51
2018-10-05T10:22:57.535Z,98475.38
2018-10-05T10:25:24.032Z,98478.59
2018-10-05T10:27:50.523Z,98476.58
2018-10-05T10:30:20.387Z,98465.48
2018-10-05T10:32:46.988Z,98460.00
2018-10-05T10:35:14.382Z,98458.48
2018-10-05T10:40:12.649Z,98456.42
2018-10-05T10:42:39.298Z,98454.13
2018-10-05T10:45:05.913Z,98454.25
2018-10-05T10:47:32.416Z,98447.59
2018-10-05T10:49:58.914Z,98437.54
2018-10-05T10:52:25.386Z,98438.05
2018-10-05T10:54:51.997Z,98437.72
2018-10-05T10:57:18.637Z,98432.36
2018-10-05T10:59:45.209Z,98434.09
2018-10-05T11:02:11.803Z,98438.25
2018-10-05T11:04:38.406Z,98438.31
2018-10-05T11:07:04.973Z,98427.79
2018-10-05T11:09:31.539Z,98423.24
2018-10-05T11:11:58.046Z,98418.14
2018-10-05T11:14:24.546Z,98410.69
2018-10-05T11:16:51.130Z,98414.42
2018-10-05T11:19:17.563Z,98402.56
2018-10-05T11:21:44.096Z,98403.77
2018-10-05T11:24:10.641Z,98395.94
2018-10-05T11:26:37.093Z,98395.06
2018-10-05T11:29:03.655Z,98389.40
2018-10-05T11:34:02.223Z,98384.48
2018-10-05T11:36:28.669Z,98380.80
2018-10-05T11:38:55.164Z,98381.09
2018-10-05T11:41:21.741Z,98381.75
2018-10-05T11:43:48.260Z,98375.65
2018-10-05T11:46:14.774Z,98367.40
2018-10-05T11:48:41.544Z,98371.45
2018-10-05T11:51:08.069Z,98362.91
2018-10-05T11:53:34.578Z,98362.73
2018-10-05T11:56:01.077Z,98354.17
2018-10-05T11:58:28.068Z,98349.64
2018-10-05T12:00:54.652Z,98347.17
2018-10-05T12:05:53.373Z,98339.48
2018-10-05T12:08:20.426Z,98340.12
2018-10-05T12:10:46.877Z,98338.70
2018-10-05T12:13:13.418Z,98344.07
2018-10-05T12:15:40.079Z,98338.22
2018-10-05T12:18:06.598Z,98335.06
2018-10-05T12:20:33.055Z,98332.05
2018-10-05T12:22:59.628Z,98324.45
2018-10-05T12:25:26.114Z,98315.09
2018-10-05T12:27:52.612Z,98319.79
2018-10-05T12:30:19.208Z,98306.45
2018-10-05T12:32:45.714Z,98305.23
2018-10-05T12:35:12.307Z,98305.52
2018-10-05T12:37:38.819Z,98298.34
2018-10-05T12:40:05.532Z,98286.27
2018-10-05T12:42:32.081Z,98288.66
2018-10-05T12:44:58.566Z,98284.89
2018-10-05T12:47:25.280Z,98292.90
2018-10-05T12:49:51.831Z,98285.68
2018-10-05T12:52:18.314Z,98278.70
2018-10-05T12:54:45.005Z,98272.95
2018-10-05T12:57:12.468Z,98279.77
2018-10-05T12:59:39.032Z,98271.03
2018-10-05T13:02:05.558Z,98267.60
2018-10-05T13:04:32.096Z,98265.63
2018-10-05T13:06:58.563Z,98258.08
2018-10-05T13:09:25.081Z,98253.99
2018-10-05T13:11:51.755Z,98247.14
2018-10-05T13:14:18.267Z,98242.64
2018-10-05T13:16:44.738Z,98245.38
2018-10-05T13:19:11.261Z,98242.63
2018-10-05T13:21:37.717Z,98240.34
2018-10-05T13:24:04.239Z,98237.66
2018-10-05T13:26:30.784Z,98231.15
2018-10-05T13:28:57.258Z,98235.80
2018-10-05T13:31:23.762Z,98229.38
2018-10-05T13:33:50.489Z,98224.41
2018-10-05T13:36:17.201Z,98220.30
2018-10-05T13:38:43.919Z,98227.75
2018-10-05T13:41:10.531Z,98220.33
2018-10-05T13:43:37.194Z,98212.46
2018-10-05T13:46:03.709Z,98210.40
2018-10-05T13:51:02.905Z,98210.45
2018-10-05T13:53:30.228Z,98209.75
2018-10-05T13:55:57.639Z,98214.24
2018-10-05T13:58:24.111Z,98210.45
2018-10-05T14:00:50.613Z,98213.41
2018-10-05T14:03:18.118Z,98203.22
2018-10-05T14:05:44.744Z,98204.39
2018-10-05T14:08:11.303Z,98196.97
2018-10-05T14:10:37.993Z,98197.38
2018-10-05T14:13:05.559Z,98201.47
2018-10-05T14:15:32.132Z,98204.97
2018-10-05T14:17:58.817Z,98206.27
2018-10-05T14:20:25.464Z,98212.34
2018-10-05T14:22:52.339Z,98208.15
2018-10-05T14:25:18.914Z,98203.13
2018-10-05T14:27:45.746Z,98206.35
2018-10-05T14:30:12.313Z,98203.63
2018-10-05T14:32:38.838Z,98197.03
2018-10-05T14:35:05.812Z,98191.29
2018-10-05T14:37:32.370Z,98195.97
2018-10-05T14:39:58.837Z,98187.70
2018-10-05T14:42:25.372Z,98190.88
2018-10-05T14:44:51.947Z,98171.33
2018-10-05T14:47:18.435Z,98180.30
2018-10-05T14:49:44.916Z,98184.27
2018-10-05T14:52:11.424Z,98176.64
2018-10-05T14:54:37.932Z,98175.73
2018-10-05T14:57:04.610Z,98181.41
2018-10-05T14:59:31.233Z,98182.27
2018-10-05T15:01:57.755Z,98190.22
2018-10-05T15:04:24.259Z,98191.98
2018-10-05T15:06:50.874Z,98187.38
2018-10-05T15:09:17.444Z,98188.08
2018-10-05T15:11:43.932Z,98193.05
2018-10-05T15:14:11.152Z,98194.56
2018-10-05T15:16:37.642Z,98183.83
2018-10-05T15:19:04.234Z,98185.77
2018-10-05T15:21:30.798Z,98187.69
2018-10-05T15:23:57.372Z,98192.88
2018-10-05T15:26:23.884Z,98200.41
2018-10-05T15:28:50.349Z,98201.26
2018-10-05T15:31:16.841Z,98207.56
2018-10-05T15:33:43.345Z,98206.08
2018-10-05T15:36:09.836Z,98209.30
2018-10-05T15:38:36.449Z,98204.13
2018-10-05T15:41:02.982Z,98202.41
2018-10-05T15:43:29.622Z,98206.20
2018-10-05T15:45:56.145Z,98207.41
2018-10-05T15:48:22.713Z,98204.61
2018-10-05T15:50:49.225Z,98206.57
2018-10-05T15:53:16.427Z,98205.17
2018-10-05T15:55:42.928Z,98207.53
2018-10-05T15:58:09.468Z,98205.24
2018-10-05T16:00:35.920Z,98207.07
2018-10-05T16:03:02.619Z,98209.56
2018-10-05T16:05:29.199Z,98210.34
2018-10-05T16:07:55.876Z,98204.30
2018-10-05T16:10:22.438Z,98207.00
2018-10-05T16:12:48.943Z,98210.23
2018-10-05T16:15:15.634Z,98204.98
2018-10-05T16:17:42.114Z,98201.59
2018-10-05T16:20:09.007Z,98203.00
2018-10-05T16:22:35.602Z,98208.58
2018-10-05T16:25:03.127Z,98198.43
2018-10-05T16:27:29.626Z,98203.38
2018-10-05T16:29:56.192Z,98211.94
2018-10-05T16:34:56.080Z,98212.91
2018-10-05T16:37:23.716Z,98217.98
2018-10-05T16:39:50.451Z,98221.82
2018-10-05T16:42:16.949Z,98228.00
2018-10-05T16:44:43.494Z,98226.52
2018-10-05T16:47:10.022Z,98222.70
2018-10-05T16:49:36.569Z,98218.27
2018-10-05T16:52:03.064Z,98209.51
2018-10-05T16:54:29.672Z,98217.78
2018-10-05T16:56:56.183Z,98225.19
2018-10-05T16:59:23.790Z,98218.25
2018-10-05T17:01:50.314Z,98213.91
2018-10-05T17:04:16.919Z,98217.34
2018-10-05T17:06:43.491Z,98215.41
2018-10-05T17:09:10.074Z,98229.12
2018-10-05T17:14:08.859Z,98234.50
2018-10-05T17:16:35.371Z,98241.31
2018-10-05T17:19:01.982Z,98234.25
2018-10-05T17:21:28.658Z,98234.27
2018-10-05T17:23:55.183Z,98233.56
2018-10-05T17:26:21.720Z,98234.58
2018-10-05T17:28:48.240Z,98235.30
2018-10-05T17:31:14.737Z,98227.04
2018-10-05T17:33:41.327Z,98232.67
2018-10-05T17:36:07.864Z,98237.47
2018-10-05T17:38:34.444Z,98233.68
2018-10-05T17:41:01.869Z,98234.19
2018-10-05T17:43:28.416Z,98242.91
2018-10-05T17:45:54.915Z,98239.01
2018-10-05T17:48:21.467Z,98241.44
2018-10-05T17:55:51.870Z,98238.60
2018-10-05T17:58:18.453Z,98242.16
2018-10-05T18:00:45.112Z,98238.59
2018-10-05T18:03:11.724Z,98241.13
2018-10-05T18:05:38.196Z,98252.12
2018-10-05T18:08:04.844Z,98246.83
2018-10-05T18:10:31.323Z,98242.13
2018-10-05T18:12:57.801Z,98253.80
2018-10-05T18:15:24.344Z,98251.36
2018-10-05T18:17:51.088Z,98246.98
2018-10-05T18:20:17.562Z,98251.20
2018-10-05T18:22:44.219Z,98249.00
2018-10-05T18:25:11.814Z,98253.52
2018-10-05T18:27:38.373Z,98260.47
2018-10-05T18:30:04.950Z,98255.84
2018-10-05T18:32:31.417Z,98259.12
2018-10-05T18:34:57.910Z,98261.34
2018-10-05T18:37:24.397Z,98263.06
2018-10-05T18:39:51.050Z,98262.39
2018-10-05T18:42:17.553Z,98259.05
2018-10-05T18:44:44.552Z,98261.88
2018-10-05T18:47:11.072Z,98262.05
2018-10-05T18:49:37.545Z,98251.25
2018-10-05T18:52:04.927Z,98254.16
2018-10-05T18:54:31.447Z,98257.16
2018-10-05T18:56:57.953Z,98253.20
2018-10-05T18:59:24.893Z,98249.14
2018-10-05T19:01:51.585Z,98246.47
2018-10-05T19:04:18.071Z,98243.73
2018-10-05T19:06:44.673Z,98246.77
2018-10-05T19:09:11.529Z,98244.77
2018-10-05T19:11:37.998Z,98243.67
2018-10-05T19:14:05.162Z,98243.84
2018-10-05T19:16:32.226Z,98242.22
2018-10-05T19:18:58.701Z,98233.09
2018-10-05T19:21:25.223Z,98230.83
2018-10-05T19:23:51.884Z,98227.72
2018-10-05T19:26:18.652Z,98227.55
2018-10-05T19:28:45.225Z,98225.05
2018-10-05T19:31:11.762Z,98216.86
2018-10-05T19:33:38.264Z,98214.73
2018-10-05T19:36:05.382Z,98214.97
2018-10-05T19:38:32.082Z,98211.31
2018-10-05T19:40:58.600Z,98218.37
2018-10-05T19:43:25.156Z,98210.80
2018-10-05T19:45:52.145Z,98207.58
2018-10-05T19:48:18.746Z,98210.64
2018-10-05T19:50:45.286Z,98203.88
2018-10-05T19:53:11.986Z,98191.66
2018-10-05T19:55:38.512Z,98197.98
2018-10-05T19:58:05.394Z,98200.33
2018-10-05T20:00:32.011Z,98191.20
2018-10-05T20:02:58.702Z,98194.73
2018-10-05T20:05:25.155Z,98191.79
2018-10-05T20:07:52.156Z,98198.61
2018-10-05T20:10:18.624Z,98196.73
2018-10-05T20:12:45.123Z,98200.95
2018-10-05T20:15:11.680Z,98198.34
2018-10-05T20:17:38.191Z,98199.94
2018-10-05T20:20:05.676Z,98194.27
2018-10-05T20:22:32.544Z,98189.98
2018-10-05T20:24:59.132Z,98189.47
2018-10-05T20:27:25.688Z,98190.78
2018-10-05T20:29:52.215Z,98182.28
2018-10-05T20:32:18.658Z,98189.16
2018-10-05T20:34:45.154Z,98181.24
2018-10-05T20:37:11.784Z,98185.06
2018-10-05T20:39:38.171Z,98190.84
2018-10-05T20:42:05.713Z,98188.53
2018-10-05T20:47:05.129Z,98185.72
2018-10-05T20:49:31.642Z,98193.30
2018-10-05T20:51:58.135Z,98191.94
2018-10-05T20:54:24.749Z,98196.40
2018-10-05T20:56:51.238Z,98195.37
2018-10-05T20:59:17.747Z,98199.53
2018-10-05T21:01:44.313Z,98199.88
2018-10-05T21:04:10.846Z,98198.47
2018-10-05T21:06:37.572Z,98202.81
2018-10-05T21:09:04.251Z,98196.32
2018-10-05T21:11:30.724Z,98202.84
2018-10-05T21:13:57.327Z,98193.16
2018-10-05T21:16:23.843Z,98198.41
2018-10-05T21:18:50.356Z,98195.83
2018-10-05T21:21:16.920Z,98188.78
2018-10-05T21:23:43.451Z,98187.63
2018-10-05T21:26:09.928Z,98188.73
2018-10-05T21:28:36.816Z,98180.02
2018-10-05T21:31:03.329Z,98178.45
2018-10-05T21:33:29.795Z,98178.84
2018-10-05T21:35:56.298Z,98179.52
2018-10-05T21:38:22.853Z,98169.78
2018-10-05T21:40:49.372Z,98173.79
2018-10-05T21:43:15.839Z,98172.06
2018-10-05T21:45:42.532Z,98174.19
2018-10-05T21:48:09.024Z,98170.95
2018-10-05T21:50:35.593Z,98160.42
2018-10-05T21:53:02.817Z,98154.83
2018-10-05T21:55:29.308Z,98157.65
2018-10-05T21:57:55.808Z,98157.95
2018-10-05T22:00:22.292Z,98161.82
2018-10-05T22:02:48.774Z,98153.98
2018-10-05T22:05:15.505Z,98154.93
2018-10-05T22:07:42.022Z,98154.35
2018-10-05T22:10:08.509Z,98148.70
2018-10-05T22:12:35.042Z,98150.59
2018-10-05T22:15:01.594Z,98145.17
2018-10-05T22:17:28.065Z,98146.27
2018-10-05T22:19:54.535Z,98148.08
2018-10-05T22:22:21.217Z,98144.20
2018-10-05T22:24:47.678Z,98148.19
2018-10-05T22:27:14.147Z,98140.41
2018-10-05T22:29:40.665Z,98147.11
2018-10-05T22:32:07.141Z,98135.98
2018-10-05T22:34:33.641Z,98145.27
2018-10-05T22:37:00.223Z,98143.78
2018-10-05T22:39:26.696Z,98133.51
2018-10-05T22:41:53.206Z,98137.89
2018-10-05T22:44:20.906Z,98124.84
2018-10-05T22:46:47.595Z,98124.34
2018-10-05T22:49:14.071Z,98130.30
2018-10-05T22:51:40.591Z,98126.66
2018-10-05T22:54:07.106Z,98135.38
2018-10-05T22:56:33.589Z,98137.04
2018-10-05T22:59:00.220Z,98133.00
2018-10-05T23:01:26.717Z,98129.52
2018-10-05T23:03:53.210Z,98125.66
2018-10-05T23:06:20.849Z,98128.23
2018-10-05T23:08:47.380Z,98138.40
2018-10-05T23:11:13.942Z,98138.40
2018-10-05T23:13:40.505Z,98140.42
2018-10-05T23:16:07.297Z,98124.45
2018-10-05T23:18:33.883Z,98132.84
2018-10-05T23:21:01.487Z,98133.37
2018-10-05T23:23:27.951Z,98131.29
2018-10-05T23:25:54.449Z,98131.40
2018-10-05T23:30:53.051Z,98123.56
2018-10-05T23:33:19.680Z,98122.44
2018-10-05T23:35:46.190Z,98115.27
2018-10-05T23:38:12.655Z,98117.55
2018-10-05T23:40:39.232Z,98119.63
2018-10-05T23:43:05.696Z,98115.61
2018-10-05T23:45:32.305Z,98116.55
2018-10-05T23:47:58.813Z,98117.98
2018-10-05T23:50:26.213Z,98115.16
2018-10-05T23:52:52.737Z,98109.61
2018-10-05T23:55:19.493Z,98104.06
2018-10-05T23:57:45.956Z,98095.67
